Observations for ABERDEEN DYCE, United Kingdom (EGPD)

EGPD 280520Z AUTO 08006KT 060V170 9999 BKN027 11/09 Q1008 NOSIG 
EGPD 280450Z 08005KT 9999 FEW026 11/08 Q1008 NOSIG  
EGPD 280420Z 09006KT 060V120 9999 FEW030 SCT045 11/08 Q1008 NOSIG   
EGPD 280350Z AUTO 09006KT 9999 FEW021 SCT044 11/08 Q1008 NOSIG  
EGPD 280320Z AUTO 10006KT 9999 FEW026 BKN044 11/08 Q1008 NOSIG  
EGPD 280250Z AUTO 09005KT 9999 BKN025 BKN033 OVC043 11/08 Q1008 NOSIG   
EGPD 280220Z AUTO 11005KT 9999 BKN022 OVC043 11/08 Q1008 NOSIG  
EGPD 280150Z AUTO 11007KT 9999 OVC042 11/08 Q1009 NOSIG 
EGPD 280120Z AUTO 12006KT 9999 SCT022 BKN040 11/09 Q1009
EGPD 280050Z AUTO 11007KT 9999 SCT021 OVC035 11/08 Q1009
EGPD 280020Z AUTO 11007KT 9999 BKN022 OVC037 11/09 Q1009 NOSIG  
EGPD 272350Z AUTO 11007KT 9999 SCT021 OVC031 11/09 Q1009 NOSIG  
EGPD 272320Z AUTO 11007KT 9999 BKN021 OVC035 11/09 Q1009 NOSIG  
EGPD 272250Z AUTO 12007KT 9999 OVC038 11/09 Q1009 NOSIG 
EGPD 272220Z AUTO 11007KT 9999 SCT022 BKN027 OVC038 11/09 Q1009 NOSIG   
EGPD 272150Z AUTO 11008KT 9999 SCT021 BKN028 OVC032 11/09 Q1009 NOSIG   
EGPD 272120Z AUTO 11008KT 9999 BKN020 OVC027 11/09 Q1009 NOSIG  
EGPD 272050Z AUTO 11009KT 9999 BKN017 OVC026 11/09 Q1009 NOSIG  
EGPD 272020Z AUTO 11008KT 6000 -RA BKN016 BKN021 BKN026 11/09 Q1009 NOSIG   
EGPD 271950Z 11008KT 9999 SCT009 BKN015 11/09 Q1009 TEMPO BKN012
EGPD 271920Z 11008KT 8000 -RA SCT008 BKN015 11/09 Q1009 TEMPO BKN014
EGPD 271850Z AUTO 12007KT 070V140 9999 BKN011/// BKN025/// OVC036/// //////TCU 11/09 Q1010 TEMPO SCT011 
EGPD 271820Z AUTO 11008KT 9999 FEW017/// OVC035/// //////TCU 11/09 Q1010 NOSIG  
EGPD 271750Z AUTO 11008KT 9999 -RA SCT015/// OVC033/// //////TCU 11/09 Q1010 TEMPO RA BKN012
EGPD 271720Z AUTO 12007KT 9999 -RA SCT015/// BKN038/// OVC044/// //////TCU 11/08 Q1010 TEMPO RA BKN012  
EGPD 271650Z AUTO 12009KT 9999 BKN016/// BKN020/// OVC040/// //////TCU 11/08 Q1010 TEMPO BKN012 
EGPD 271620Z AUTO 12011KT 9999 BKN015 OVC042 11/08 Q1010 TEMPO BKN012   
EGPD 271550Z AUTO 12011KT 9999 BKN014 BKN020 OVC047 11/08 Q1010 NOSIG   
EGPD 271520Z AUTO 11011KT 9999 BKN014 BKN020 OVC047 11/08 Q1010 TEMPO SCT014
EGPD 271450Z AUTO 11010KT 9999 BKN012 BKN029 OVC045 11/08 Q1011 TEMPO SCT012
EGPD 271420Z AUTO 11010KT 9999 SCT014 OVC039 11/08 Q1011 TEMPO BKN014   
EGPD 271350Z AUTO 13011KT 9999 BKN014 OVC039 11/08 Q1011 NOSIG  
EGPD 271320Z AUTO 12010KT 9999 BKN013/// BKN030/// OVC047/// 11/08 Q1011 TEMPO SCT012   
EGPD 271250Z AUTO 12011KT 9999 SCT012 BKN017 OVC045 11/09 Q1011 TEMPO BKN012
EGPD 271220Z AUTO 14010KT 9999 SCT014 BKN024 11/09 Q1011 NOSIG  
EGPD 271150Z AUTO 14010KT 9999 SCT011 BKN020 11/08 Q1012 TEMPO RA   
EGPD 271120Z AUTO 13009KT 9999 -RA BKN010 BKN014 BKN021 11/09 Q1012 TEMPO RA
EGPD 271050Z AUTO 14009KT 9999 -RA BKN010 BKN022 11/09 Q1012 NOSIG  
EGPD 271020Z AUTO 15012KT 9999 -RA BKN011 11/09 Q1012 TEMPO SCT011  
EGPD 270950Z AUTO 14010KT 9999 -RA BKN011 BKN027 11/09 Q1012 TEMPO SCT011   
EGPD 270920Z 14009KT 9999 -RA SCT011 BKN027 11/09 Q1012 NOSIG   
EGPD 270850Z 14010KT 9999 SCT013 BKN030 11/09 Q1012 NOSIG   
EGPD 270820Z 13009KT 9999 -RA SCT013 BKN030 11/09 Q1012 TEMPO RA
EGPD 270750Z 13009KT 9999 -SHRA SCT013 BKN028 11/09 Q1012 TEMPO RA  
EGPD 270720Z 12009KT 9999 SCT013 SCT030 11/08 Q1013 NOSIG   
EGPD 270650Z 12008KT 9999 SCT014 11/08 Q1013 NOSIG  
EGPD 270620Z 12008KT 9999 SCT016 11/08 Q1013 NOSIG  
EGPD 270550Z 12008KT 9999 SCT016 11/08 Q1013 NOSIG  
EGPD 270520Z AUTO 11007KT 090V160 9999 BKN016 10/07 Q1013 NOSIG 
EGPD 270450Z AUTO 13007KT 9999 NCD 10/07 Q1013 NOSIG